createdAt,value
2023-03-23T17:20:23.661Z,3.17
2023-03-23T17:22:50.816Z,3.03
2023-03-23T17:25:17.946Z,2.67
2023-03-23T17:27:45.058Z,3.05
2023-03-23T17:30:12.477Z,2.67
2023-03-23T17:32:39.935Z,3.35
2023-03-23T17:35:08.620Z,3.10
2023-03-23T17:37:37.911Z,3.50
2023-03-23T17:40:08.835Z,3.47
2023-03-23T17:42:37.226Z,4.13
2023-03-23T17:45:06.322Z,3.80
2023-03-23T17:47:34.683Z,3.60
2023-03-23T17:50:11.444Z,3.40
2023-03-23T17:52:40.556Z,2.67
2023-03-23T17:55:08.611Z,2.75
2023-03-23T17:57:36.072Z,2.90
2023-03-23T18:00:07.973Z,2.78
2023-03-23T18:02:38.105Z,2.40
2023-03-23T18:05:06.741Z,3.40
2023-03-23T18:07:34.062Z,3.00
2023-03-23T18:10:04.619Z,3.10
2023-03-23T18:12:31.824Z,2.93
2023-03-23T18:14:59.916Z,2.88
2023-03-23T18:17:27.875Z,2.72
2023-03-23T18:19:56.188Z,2.47
2023-03-23T18:22:23.347Z,2.60
2023-03-23T18:24:51.113Z,2.95
2023-03-23T18:27:19.252Z,2.70
2023-03-23T18:29:46.824Z,2.92
2023-03-23T22:25:47.701Z,3.13
2023-03-23T22:28:14.698Z,3.88
2023-03-23T22:30:41.508Z,3.58
2023-03-23T22:33:08.408Z,3.50
2023-03-23T22:35:35.453Z,3.45
2023-03-23T22:38:03.378Z,3.22
2023-03-23T22:40:33.250Z,3.65
2023-03-23T22:43:00.204Z,3.50
2023-03-23T22:45:28.203Z,3.60
2023-03-23T22:47:55.237Z,3.50
2023-03-23T22:50:24.319Z,3.30
2023-03-23T22:52:51.389Z,3.60
2023-03-23T22:55:18.581Z,4.28
2023-03-23T22:57:46.143Z,3.55
2023-03-23T23:00:18.762Z,3.33
2023-03-23T23:02:45.743Z,3.53
2023-03-23T23:05:13.494Z,3.58
2023-03-23T23:07:41.025Z,3.72
2023-03-23T23:10:08.125Z,3.63
2023-03-23T23:12:37.694Z,3.50
2023-03-23T23:15:06.251Z,3.97
2023-03-23T23:17:34.966Z,3.80
2023-03-23T23:20:05.588Z,3.75
2023-03-23T23:22:33.626Z,3.23
2023-03-23T23:25:01.351Z,4.07
2023-03-23T23:27:28.387Z,3.92
2023-03-23T23:29:55.174Z,4.10
2023-03-23T23:32:21.979Z,4.43
